Time;durP1;ratioP1;P1;durP2;ratioP2;P2;SDS_P1;SDS_P2;PMS_P1;PMS_P2;Temp;Humidity;BMP_temperature;BMP_pressure;BME280_temperature;BME280_humidity;BME280_pressure;Samples;Min_cycle;Max_cycle;Signal;HPM_P1;HPM_P2
2023/01/07 00:00:23;;;;;;;10.57;7.65;;;;;;;;;;10334945;28;20034;-53
2023/01/07 00:05:24;;;;;;;10.00;7.18;;;;;;;;;;10330327;28;20027;-51
2023/01/07 00:10:24;;;;;;;11.38;7.63;;;;;;;;;;10329090;28;20030;-50
2023/01/07 00:15:25;;;;;;;9.52;7.47;;;;;;;;;;10339907;28;20034;-50
2023/01/07 00:20:26;;;;;;;10.07;7.63;;;;;;;;;;10329462;28;20037;-51
2023/01/07 00:25:27;;;;;;;9.77;7.13;;;;;;;;;;10313836;28;20751;-47
2023/01/07 00:30:27;;;;;;;9.75;7.53;;;;;;;;;;10325945;28;20038;-52
2023/01/07 00:35:28;;;;;;;10.98;7.38;;;;;;;;;;10331194;28;20022;-54
2023/01/07 00:40:32;;;;;;;9.88;7.80;;;;;;;;;;10347398;28;20117;-55
2023/01/07 00:45:36;;;;;;;7.50;6.15;;;;;;;;;;10353182;28;20033;-54
2023/01/07 00:50:37;;;;;;;10.82;7.35;;;;;;;;;;10359276;28;20048;-52
2023/01/07 00:55:38;;;;;;;7.88;6.10;;;;;;;;;;10362901;28;20030;-55
2023/01/07 01:00:38;;;;;;;8.85;6.88;;;;;;;;;;10332770;28;20467;-52
2023/01/07 01:05:40;;;;;;;9.52;6.75;;;;;;;;;;10335656;28;20026;-54
2023/01/07 01:10:40;;;;;;;10.55;7.47;;;;;;;;;;10345235;28;20042;-55
2023/01/07 01:15:48;;;;;;;9.25;7.38;;;;;;;;;;10350191;28;20120;-55
2023/01/07 01:20:48;;;;;;;9.55;7.15;;;;;;;;;;10353631;28;20042;-54
2023/01/07 01:25:49;;;;;;;9.18;6.88;;;;;;;;;;10325959;28;20061;-48
2023/01/07 01:30:56;;;;;;;9.80;6.93;;;;;;;;;;10333880;28;20022;-50
2023/01/07 01:35:56;;;;;;;9.45;6.70;;;;;;;;;;10332598;28;20050;-51
2023/01/07 01:40:57;;;;;;;8.23;6.38;;;;;;;;;;10333609;28;20022;-52
2023/01/07 01:46:31;;;;;;;9.35;6.57;;;;;;;;;;10332968;28;20030;-53
2023/01/07 01:51:35;;;;;;;8.68;6.55;;;;;;;;;;10349177;28;20109;-52
2023/01/07 01:56:42;;;;;;;9.93;6.72;;;;;;;;;;10363235;28;20030;-55
2023/01/07 02:01:42;;;;;;;12.45;6.68;;;;;;;;;;10375422;28;20269;-50
2023/01/07 02:06:54;;;;;;;8.00;6.22;;;;;;;;;;10367557;28;20253;-50
2023/01/07 02:12:26;;;;;;;7.82;6.18;;;;;;;;;;10357482;28;20052;-55
2023/01/07 02:17:54;;;;;;;10.32;6.50;;;;;;;;;;10339763;28;20022;-52
2023/01/07 02:23:19;;;;;;;7.28;6.07;;;;;;;;;;10323017;28;20474;-51
2023/01/07 02:28:51;;;;;;;7.90;5.68;;;;;;;;;;10339385;28;20045;-51
2023/01/07 02:34:05;;;;;;;7.75;5.85;;;;;;;;;;10334341;28;20029;-53
2023/01/07 02:39:20;;;;;;;8.90;6.10;;;;;;;;;;10339256;28;20485;-55
2023/01/07 02:44:31;;;;;;;9.18;6.20;;;;;;;;;;10344435;28;20105;-56
2023/01/07 02:49:33;;;;;;;8.50;6.00;;;;;;;;;;10350304;28;20034;-55
2023/01/07 02:54:34;;;;;;;7.68;5.88;;;;;;;;;;10357277;28;20026;-55
2023/01/07 03:00:02;;;;;;;11.85;6.43;;;;;;;;;;10348134;28;20034;-55
2023/01/07 03:05:28;;;;;;;8.10;6.32;;;;;;;;;;10330465;28;20050;-55
2023/01/07 03:10:57;;;;;;;8.55;5.25;;;;;;;;;;10354459;28;20019;-50
2023/01/07 03:16:26;;;;;;;7.07;5.55;;;;;;;;;;10347464;28;20038;-49
2023/01/07 03:21:28;;;;;;;8.13;5.50;;;;;;;;;;10326344;28;20041;-51
2023/01/07 03:26:37;;;;;;;7.35;5.78;;;;;;;;;;10352260;28;20398;-48
2023/01/07 03:31:59;;;;;;;7.63;5.15;;;;;;;;;;10360957;28;20022;-49
2023/01/07 03:37:06;;;;;;;7.85;5.30;;;;;;;;;;10347882;28;20039;-53
2023/01/07 03:47:32;;;;;;;6.85;5.60;;;;;;;;;;10343035;28;20457;-53
2023/01/07 03:52:33;;;;;;;7.18;5.43;;;;;;;;;;10351591;28;20029;-55
2023/01/07 03:57:34;;;;;;;8.25;5.75;;;;;;;;;;10341939;28;20031;-49
2023/01/07 04:02:35;;;;;;;7.55;5.15;;;;;;;;;;10330280;28;20026;-55
2023/01/07 04:07:36;;;;;;;9.60;5.60;;;;;;;;;;10327224;28;20465;-54
2023/01/07 04:12:37;;;;;;;5.93;5.05;;;;;;;;;;10320376;28;20473;-54
2023/01/07 04:17:37;;;;;;;8.02;5.78;;;;;;;;;;10326495;28;20037;-54
2023/01/07 04:22:38;;;;;;;7.32;5.05;;;;;;;;;;10327558;28;20037;-48
2023/01/07 04:27:38;;;;;;;6.95;5.60;;;;;;;;;;10327977;28;20489;-52
2023/01/07 04:32:39;;;;;;;5.90;5.15;;;;;;;;;;10328988;28;20034;-48
2023/01/07 04:37:39;;;;;;;7.90;5.00;;;;;;;;;;10328740;28;20034;-49
2023/01/07 04:42:40;;;;;;;6.28;5.32;;;;;;;;;;10328158;28;20026;-48
2023/01/07 04:47:41;;;;;;;7.90;6.00;;;;;;;;;;10322032;28;20037;-47
2023/01/07 04:52:41;;;;;;;7.13;5.50;;;;;;;;;;10326187;28;20050;-50
2023/01/07 04:57:42;;;;;;;7.53;5.25;;;;;;;;;;10336369;28;20033;-48
2023/01/07 05:02:43;;;;;;;6.63;5.05;;;;;;;;;;10348895;28;20017;-52
2023/01/07 05:07:43;;;;;;;8.73;5.00;;;;;;;;;;10340320;28;20043;-51
2023/01/07 05:12:44;;;;;;;7.53;5.43;;;;;;;;;;10349994;28;20036;-54
2023/01/07 05:17:44;;;;;;;7.78;5.68;;;;;;;;;;10354459;28;20037;-50
2023/01/07 05:22:45;;;;;;;6.78;5.30;;;;;;;;;;10360612;28;20037;-54
2023/01/07 05:27:45;;;;;;;6.75;5.10;;;;;;;;;;10366135;28;20111;-50
2023/01/07 05:32:46;;;;;;;5.75;4.75;;;;;;;;;;10360823;28;20214;-52
2023/01/07 05:37:47;;;;;;;6.15;5.10;;;;;;;;;;10336005;28;20026;-55
2023/01/07 05:42:47;;;;;;;6.03;5.00;;;;;;;;;;10340480;28;20018;-53
2023/01/07 05:47:48;;;;;;;7.85;5.22;;;;;;;;;;10333828;28;20037;-47
2023/01/07 05:52:50;;;;;;;6.45;4.82;;;;;;;;;;10344398;28;20062;-53
2023/01/07 05:57:51;;;;;;;5.93;4.82;;;;;;;;;;10335483;28;20029;-54
2023/01/07 06:02:51;;;;;;;5.28;4.43;;;;;;;;;;10341888;28;20481;-55
2023/01/07 06:07:52;;;;;;;6.85;4.95;;;;;;;;;;10332284;28;20041;-53
2023/01/07 06:12:52;;;;;;;6.55;4.85;;;;;;;;;;10331660;28;20030;-54
2023/01/07 06:17:53;;;;;;;5.75;4.93;;;;;;;;;;10337271;28;20262;-52
2023/01/07 06:22:54;;;;;;;5.60;4.35;;;;;;;;;;10357299;28;20026;-54
2023/01/07 06:27:58;;;;;;;6.97;5.05;;;;;;;;;;10334759;28;20046;-54
2023/01/07 06:32:59;;;;;;;4.80;4.30;;;;;;;;;;10340105;28;20462;-54
2023/01/07 06:38:00;;;;;;;7.32;5.03;;;;;;;;;;10346647;28;20032;-51
2023/01/07 06:43:00;;;;;;;6.07;5.15;;;;;;;;;;10353194;28;20026;-53
2023/01/07 06:48:01;;;;;;;6.45;5.15;;;;;;;;;;10357416;28;20042;-51
2023/01/07 06:53:02;;;;;;;5.60;4.70;;;;;;;;;;10365503;28;20022;-52
2023/01/07 06:58:03;;;;;;;6.00;4.68;;;;;;;;;;10356025;28;20030;-54
2023/01/07 07:03:03;;;;;;;6.22;4.60;;;;;;;;;;10340776;28;20022;-52
2023/01/07 07:08:05;;;;;;;8.27;4.45;;;;;;;;;;10338610;28;20053;-50
2023/01/07 07:13:05;;;;;;;6.03;4.97;;;;;;;;;;10338095;28;20096;-47
2023/01/07 07:18:06;;;;;;;5.28;4.45;;;;;;;;;;10342477;28;20046;-51
2023/01/07 07:23:07;;;;;;;19.63;4.40;;;;;;;;;;10346591;28;20033;-47
2023/01/07 07:28:07;;;;;;;5.03;4.53;;;;;;;;;;10360707;28;20046;-50
2023/01/07 07:33:08;;;;;;;5.90;4.25;;;;;;;;;;10365166;28;20026;-55
2023/01/07 07:38:08;;;;;;;5.75;4.15;;;;;;;;;;10332355;28;20034;-55
2023/01/07 07:43:10;;;;;;;5.07;4.22;;;;;;;;;;10339065;28;20022;-53
2023/01/07 07:48:14;;;;;;;5.20;4.22;;;;;;;;;;10324592;28;20518;-51
2023/01/07 07:53:14;;;;;;;4.57;4.18;;;;;;;;;;10327890;28;20080;-53
2023/01/07 07:58:15;;;;;;;5.28;4.10;;;;;;;;;;10332581;28;20104;-54
2023/01/07 08:03:16;;;;;;;5.18;4.00;;;;;;;;;;10328027;28;20041;-53
2023/01/07 08:08:16;;;;;;;5.00;3.85;;;;;;;;;;10327517;28;20038;-54
2023/01/07 08:13:18;;;;;;;7.18;4.50;;;;;;;;;;10327502;28;20039;-47
2023/01/07 08:18:18;;;;;;;10.80;4.70;;;;;;;;;;10324373;28;20113;-47
2023/01/07 08:23:19;;;;;;;6.40;5.00;;;;;;;;;;10324847;28;20548;-47
2023/01/07 08:28:19;;;;;;;11.20;5.68;;;;;;;;;;10322370;28;20486;-47
2023/01/07 08:33:20;;;;;;;11.18;7.43;;;;;;;;;;10318163;28;20034;-47
2023/01/07 08:38:20;;;;;;;12.45;6.63;;;;;;;;;;10312929;28;20022;-48
2023/01/07 08:43:22;;;;;;;14.07;8.05;;;;;;;;;;10318654;28;20038;-47
2023/01/07 08:48:23;;;;;;;16.95;7.13;;;;;;;;;;10318533;28;20030;-48
2023/01/07 08:53:24;;;;;;;13.95;8.38;;;;;;;;;;10332893;28;20499;-47
2023/01/07 08:58:25;;;;;;;21.80;8.02;;;;;;;;;;10338409;28;20041;-48
2023/01/07 09:03:25;;;;;;;14.25;8.40;;;;;;;;;;10329472;28;20034;-48
2023/01/07 09:08:26;;;;;;;22.13;7.78;;;;;;;;;;10322755;28;20034;-50
2023/01/07 09:13:27;;;;;;;17.48;8.02;;;;;;;;;;10325728;28;20037;-53
2023/01/07 09:18:27;;;;;;;19.70;8.35;;;;;;;;;;10320843;28;20501;-52
2023/01/07 09:23:28;;;;;;;12.73;7.82;;;;;;;;;;10328456;28;20026;-51
2023/01/07 09:28:28;;;;;;;20.23;7.60;;;;;;;;;;10323680;28;20038;-58
2023/01/07 09:33:29;;;;;;;19.35;8.10;;;;;;;;;;10322890;28;20480;-58
2023/01/07 09:38:30;;;;;;;16.77;8.48;;;;;;;;;;10324888;28;20213;-58
2023/01/07 09:43:45;;;;;;;25.60;7.95;;;;;;;;;;10331745;28;20033;-57
2023/01/07 09:48:56;;;;;;;14.48;7.70;;;;;;;;;;10340889;28;20082;-56
2023/01/07 09:54:01;;;;;;;17.02;7.80;;;;;;;;;;10354289;28;20040;-58
2023/01/07 09:59:04;;;;;;;24.75;7.68;;;;;;;;;;10357165;28;20485;-56
2023/01/07 10:04:25;;;;;;;14.55;7.65;;;;;;;;;;10334779;28;20030;-56
2023/01/07 10:09:52;;;;;;;19.70;7.70;;;;;;;;;;10351252;28;20040;-58
2023/01/07 10:15:08;;;;;;;20.58;7.57;;;;;;;;;;10359759;28;20031;-52
2023/01/07 10:20:44;;;;;;;13.18;6.90;;;;;;;;;;10332636;28;20046;-48
2023/01/07 10:25:50;;;;;;;12.55;6.78;;;;;;;;;;10334372;28;20045;-52
2023/01/07 10:30:53;;;;;;;13.15;7.47;;;;;;;;;;10342381;28;20561;-58
2023/01/07 10:36:24;;;;;;;17.77;7.32;;;;;;;;;;10332039;28;20038;-54
2023/01/07 10:41:39;;;;;;;12.98;7.38;;;;;;;;;;10334791;28;20032;-50
2023/01/07 10:47:08;;;;;;;17.38;7.13;;;;;;;;;;10318069;28;20029;-53
2023/01/07 10:52:25;;;;;;;11.60;6.30;;;;;;;;;;10333662;28;20022;-52
2023/01/07 10:57:28;;;;;;;13.57;6.78;;;;;;;;;;10336061;28;20085;-51
2023/01/07 11:02:29;;;;;;;15.80;7.47;;;;;;;;;;10356608;28;20077;-53
2023/01/07 11:07:45;;;;;;;18.48;6.80;;;;;;;;;;10339035;28;20532;-54
2023/01/07 11:13:15;;;;;;;11.73;5.95;;;;;;;;;;10346816;28;20021;-53
2023/01/07 11:18:35;;;;;;;10.93;6.00;;;;;;;;;;10347170;28;20034;-52
2023/01/07 11:23:37;;;;;;;12.55;6.28;;;;;;;;;;10340547;28;20506;-55
2023/01/07 11:28:52;;;;;;;12.68;6.07;;;;;;;;;;10360411;28;20501;-56
2023/01/07 11:33:53;;;;;;;11.50;6.00;;;;;;;;;;10345706;28;20038;-56
2023/01/07 11:39:09;;;;;;;9.40;5.90;;;;;;;;;;10331742;28;20018;-55
2023/01/07 11:44:15;;;;;;;12.88;5.85;;;;;;;;;;10336968;28;20084;-56
2023/01/07 11:49:27;;;;;;;13.95;6.35;;;;;;;;;;10324186;28;20084;-56
2023/01/07 11:54:29;;;;;;;11.05;5.65;;;;;;;;;;10328293;28;20034;-58
2023/01/07 11:59:29;;;;;;;13.38;5.70;;;;;;;;;;10339057;28;20042;-55
2023/01/07 12:04:35;;;;;;;9.82;5.65;;;;;;;;;;10336654;28;20494;-49
2023/01/07 12:09:42;;;;;;;10.32;6.30;;;;;;;;;;10327592;28;20030;-57
2023/01/07 12:14:46;;;;;;;14.88;7.22;;;;;;;;;;10340676;28;20026;-59
2023/01/07 12:20:31;;;;;;;19.15;7.20;;;;;;;;;;10324154;28;20022;-54
2023/01/07 12:26:05;;;;;;;17.58;6.78;;;;;;;;;;10295946;28;20052;-52
2023/01/07 12:31:33;;;;;;;10.23;6.68;;;;;;;;;;10325324;28;20038;-54
2023/01/07 12:36:59;;;;;;;10.68;6.35;;;;;;;;;;10313636;28;20094;-53
2023/01/07 12:42:12;;;;;;;14.73;6.40;;;;;;;;;;10319455;28;20415;-53
2023/01/07 12:47:23;;;;;;;18.88;7.35;;;;;;;;;;10328562;28;20018;-54
2023/01/07 12:52:50;;;;;;;11.60;6.30;;;;;;;;;;10322498;28;20421;-52
2023/01/07 12:58:26;;;;;;;10.70;6.35;;;;;;;;;;10337125;28;20544;-57
2023/01/07 13:03:53;;;;;;;9.13;6.07;;;;;;;;;;10326952;28;20074;-51
2023/01/07 13:09:19;;;;;;;12.57;6.00;;;;;;;;;;10325067;28;20037;-51
2023/01/07 13:14:40;;;;;;;11.50;5.90;;;;;;;;;;10326068;28;20042;-53
2023/01/07 13:19:40;;;;;;;10.68;6.18;;;;;;;;;;10339182;28;20417;-54
2023/01/07 13:25:26;;;;;;;13.10;6.03;;;;;;;;;;10338732;28;20080;-49
2023/01/07 13:31:10;;;;;;;11.13;6.25;;;;;;;;;;10319978;28;20038;-59
2023/01/07 13:36:38;;;;;;;11.88;5.78;;;;;;;;;;10338415;28;20042;-55
2023/01/07 13:41:45;;;;;;;11.63;5.90;;;;;;;;;;10330044;28;20032;-54
2023/01/07 13:46:46;;;;;;;20.83;6.10;;;;;;;;;;10335269;28;20022;-60
2023/01/07 13:51:47;;;;;;;15.00;6.43;;;;;;;;;;10344071;28;20022;-53
2023/01/07 13:56:47;;;;;;;15.48;6.00;;;;;;;;;;10349614;28;20059;-57
2023/01/07 14:02:25;;;;;;;13.85;6.40;;;;;;;;;;10340041;28;20018;-54
2023/01/07 14:07:25;;;;;;;9.55;6.20;;;;;;;;;;10292129;28;20086;-59
2023/01/07 14:12:54;;;;;;;12.98;6.53;;;;;;;;;;10295755;28;20039;-61
2023/01/07 14:18:24;;;;;;;10.35;6.07;;;;;;;;;;10286169;28;20093;-59
2023/01/07 14:24:08;;;;;;;15.32;6.57;;;;;;;;;;10302580;28;20035;-61
2023/01/07 14:29:18;;;;;;;9.23;5.72;;;;;;;;;;10274529;28;20047;-60
2023/01/07 14:34:24;;;;;;;21.98;6.38;;;;;;;;;;10283841;28;20070;-63
2023/01/07 14:39:41;;;;;;;18.00;6.18;;;;;;;;;;10290197;28;20034;-57
2023/01/07 14:44:42;;;;;;;36.03;8.65;;;;;;;;;;10337201;28;20481;-61
2023/01/07 14:50:11;;;;;;;19.85;6.55;;;;;;;;;;10350089;28;20030;-61
2023/01/07 14:55:33;;;;;;;13.77;5.93;;;;;;;;;;10340580;28;20121;-58
2023/01/07 15:00:56;;;;;;;15.32;7.03;;;;;;;;;;10356910;28;20054;-62
2023/01/07 15:06:19;;;;;;;18.60;6.88;;;;;;;;;;10322324;28;20593;-48
2023/01/07 15:16:48;;;;;;;14.32;7.00;;;;;;;;;;10337668;28;20043;-62
2023/01/07 15:22:35;;;;;;;20.08;7.25;;;;;;;;;;10320865;28;20038;-57
2023/01/07 15:27:43;;;;;;;20.10;6.63;;;;;;;;;;10328530;28;20050;-46
2023/01/07 15:33:14;;;;;;;19.43;6.30;;;;;;;;;;10325671;28;20034;-46
2023/01/07 15:38:43;;;;;;;14.60;6.78;;;;;;;;;;10321243;28;20054;-46
2023/01/07 15:43:43;;;;;;;20.10;7.18;;;;;;;;;;10345208;28;20510;-46
2023/01/07 15:48:44;;;;;;;11.13;6.65;;;;;;;;;;10331951;28;20034;-59
2023/01/07 15:53:54;;;;;;;13.90;6.78;;;;;;;;;;10339386;28;20030;-53
2023/01/07 15:58:55;;;;;;;14.98;7.90;;;;;;;;;;10344888;28;20504;-48
2023/01/07 16:03:56;;;;;;;13.48;7.20;;;;;;;;;;10328288;28;20125;-46
2023/01/07 16:08:58;;;;;;;17.30;7.75;;;;;;;;;;10335589;28;20026;-48
2023/01/07 16:14:02;;;;;;;25.65;7.50;;;;;;;;;;10343566;28;20125;-58
2023/01/07 16:19:03;;;;;;;14.00;8.15;;;;;;;;;;10348718;28;20022;-49
2023/01/07 16:24:04;;;;;;;16.52;7.57;;;;;;;;;;10353880;28;20034;-45
2023/01/07 16:29:28;;;;;;;14.30;8.07;;;;;;;;;;10375448;28;20038;-54
2023/01/07 16:34:29;;;;;;;15.27;7.97;;;;;;;;;;10353064;28;20417;-47
2023/01/07 16:39:33;;;;;;;13.35;8.05;;;;;;;;;;10331001;28;20038;-46
2023/01/07 16:44:43;;;;;;;18.48;8.02;;;;;;;;;;10336970;28;20034;-57
2023/01/07 16:49:44;;;;;;;13.20;7.90;;;;;;;;;;10327566;28;20027;-56
2023/01/07 16:54:48;;;;;;;12.10;7.45;;;;;;;;;;10338483;28;20026;-55
2023/01/07 16:59:56;;;;;;;19.42;8.73;;;;;;;;;;10328344;28;20126;-56
2023/01/07 17:05:13;;;;;;;17.02;8.05;;;;;;;;;;10339845;28;20030;-56
2023/01/07 17:10:36;;;;;;;19.30;7.90;;;;;;;;;;10360591;28;20548;-54
2023/01/07 17:15:40;;;;;;;14.45;7.70;;;;;;;;;;10363874;28;20400;-54
2023/01/07 17:20:50;;;;;;;15.13;8.02;;;;;;;;;;10358196;28;20053;-51
2023/01/07 17:26:21;;;;;;;12.77;8.13;;;;;;;;;;10378722;28;20121;-48
2023/01/07 17:31:23;;;;;;;12.75;7.68;;;;;;;;;;10368711;28;20054;-51
2023/01/07 17:36:25;;;;;;;13.43;7.80;;;;;;;;;;10335603;28;20034;-49
2023/01/07 17:46:45;;;;;;;15.48;8.10;;;;;;;;;;10355140;28;20018;-49
2023/01/07 17:51:47;;;;;;;13.75;8.50;;;;;;;;;;10367445;28;20465;-48
2023/01/07 17:56:48;;;;;;;13.02;7.95;;;;;;;;;;10343014;28;20437;-49
2023/01/07 18:01:51;;;;;;;15.55;8.23;;;;;;;;;;10344592;28;20030;-45
2023/01/07 18:06:52;;;;;;;13.32;8.32;;;;;;;;;;10324406;28;20115;-52
2023/01/07 18:17:12;;;;;;;18.70;7.90;;;;;;;;;;10300871;28;20469;-45
2023/01/07 18:22:12;;;;;;;15.00;7.63;;;;;;;;;;10309491;28;20030;-47
2023/01/07 18:27:17;;;;;;;11.13;7.53;;;;;;;;;;10315429;28;20104;-47
2023/01/07 18:32:18;;;;;;;18.52;7.93;;;;;;;;;;10305581;28;20392;-52
2023/01/07 18:37:18;;;;;;;15.57;7.70;;;;;;;;;;10308930;28;20027;-52
2023/01/07 18:42:19;;;;;;;11.88;7.38;;;;;;;;;;10313518;28;20077;-52
2023/01/07 18:47:19;;;;;;;26.42;7.40;;;;;;;;;;10302760;28;20042;-48
2023/01/07 18:52:20;;;;;;;10.55;7.25;;;;;;;;;;10318047;28;20022;-55
2023/01/07 18:57:21;;;;;;;13.70;7.70;;;;;;;;;;10332489;28;20046;-54
2023/01/07 19:02:21;;;;;;;14.15;7.38;;;;;;;;;;10303299;28;20023;-52
2023/01/07 19:07:22;;;;;;;12.90;7.70;;;;;;;;;;10306008;28;20570;-51
2023/01/07 19:12:24;;;;;;;10.55;7.70;;;;;;;;;;10300644;28;20049;-54
2023/01/07 19:17:25;;;;;;;15.35;8.25;;;;;;;;;;10335801;28;20540;-48
2023/01/07 19:22:26;;;;;;;12.40;7.07;;;;;;;;;;10354520;28;20299;-55
2023/01/07 19:27:26;;;;;;;13.10;8.43;;;;;;;;;;10354602;28;20054;-55
2023/01/07 19:32:30;;;;;;;10.43;7.93;;;;;;;;;;10338062;28;20034;-47
2023/01/07 19:37:31;;;;;;;11.63;8.18;;;;;;;;;;10327248;28;20065;-46
2023/01/07 19:42:32;;;;;;;12.98;7.95;;;;;;;;;;10333575;28;20034;-47
2023/01/07 19:47:34;;;;;;;12.32;7.53;;;;;;;;;;10324680;28;20117;-51
2023/01/07 19:52:34;;;;;;;15.70;9.40;;;;;;;;;;10341169;28;20026;-47
2023/01/07 19:57:35;;;;;;;13.07;8.60;;;;;;;;;;10343227;28;20042;-47
2023/01/07 20:02:35;;;;;;;17.38;8.88;;;;;;;;;;10339302;28;20026;-49
2023/01/07 20:07:36;;;;;;;18.42;9.10;;;;;;;;;;10322195;28;20054;-47
2023/01/07 20:12:37;;;;;;;25.90;8.85;;;;;;;;;;10333090;28;20504;-47
2023/01/07 20:17:37;;;;;;;14.77;9.50;;;;;;;;;;10345643;28;20022;-47
2023/01/07 20:22:38;;;;;;;17.92;8.40;;;;;;;;;;10333723;28;20025;-47
2023/01/07 20:27:39;;;;;;;14.68;8.40;;;;;;;;;;10326956;28;20485;-47
2023/01/07 20:32:39;;;;;;;14.75;8.32;;;;;;;;;;10327688;28;20037;-46
2023/01/07 20:37:40;;;;;;;14.65;8.65;;;;;;;;;;10326816;28;20034;-49
2023/01/07 20:42:41;;;;;;;12.63;7.55;;;;;;;;;;10333307;28;20030;-48
2023/01/07 20:47:42;;;;;;;15.10;7.88;;;;;;;;;;10325938;28;20279;-47
2023/01/07 20:52:43;;;;;;;14.48;7.35;;;;;;;;;;10327497;28;20030;-47
2023/01/07 20:57:44;;;;;;;12.25;8.07;;;;;;;;;;10338602;28;20053;-47
2023/01/07 21:02:44;;;;;;;15.27;7.78;;;;;;;;;;10331587;28;20018;-47
2023/01/07 21:07:46;;;;;;;15.00;8.90;;;;;;;;;;10321712;28;20045;-48
2023/01/07 21:12:47;;;;;;;26.70;8.70;;;;;;;;;;10327202;28;20081;-52
2023/01/07 21:17:48;;;;;;;12.98;8.82;;;;;;;;;;10326549;28;20057;-46
2023/01/07 21:22:48;;;;;;;14.90;9.23;;;;;;;;;;10326781;28;20143;-46
2023/01/07 21:27:49;;;;;;;14.55;9.27;;;;;;;;;;10330681;28;20039;-46
2023/01/07 21:32:49;;;;;;;16.15;9.05;;;;;;;;;;10331670;28;20386;-46
2023/01/07 21:37:54;;;;;;;11.70;9.00;;;;;;;;;;10332704;28;20050;-56
2023/01/07 21:42:55;;;;;;;13.68;9.88;;;;;;;;;;10341642;28;20450;-55
2023/01/07 21:47:56;;;;;;;14.35;10.13;;;;;;;;;;10333213;28;20054;-50
2023/01/07 21:52:57;;;;;;;15.45;9.73;;;;;;;;;;10331867;28;20025;-56
2023/01/07 21:57:57;;;;;;;14.07;9.10;;;;;;;;;;10336043;28;20033;-46
2023/01/07 22:02:58;;;;;;;17.40;9.93;;;;;;;;;;10341333;28;20031;-49
2023/01/07 22:07:59;;;;;;;16.38;9.23;;;;;;;;;;10332816;28;20034;-50
2023/01/07 22:12:59;;;;;;;14.60;9.73;;;;;;;;;;10331864;28;20038;-50
2023/01/07 22:18:00;;;;;;;16.48;9.73;;;;;;;;;;10331916;28;20034;-53
2023/01/07 22:23:00;;;;;;;15.95;9.43;;;;;;;;;;10332272;28;20393;-54
2023/01/07 22:28:02;;;;;;;14.25;10.52;;;;;;;;;;10331491;28;20486;-52
2023/01/07 22:33:03;;;;;;;14.35;9.93;;;;;;;;;;10331283;28;20042;-50
2023/01/07 22:38:04;;;;;;;16.02;10.32;;;;;;;;;;10332150;28;20038;-49
2023/01/07 22:43:10;;;;;;;16.25;10.25;;;;;;;;;;10336861;28;20401;-51
2023/01/07 22:48:15;;;;;;;14.68;10.15;;;;;;;;;;10326218;28;20034;-48
2023/01/07 22:53:16;;;;;;;14.65;10.00;;;;;;;;;;10342246;28;20418;-48
2023/01/07 22:58:17;;;;;;;13.88;9.82;;;;;;;;;;10345036;28;20030;-48
2023/01/07 23:03:21;;;;;;;16.27;9.90;;;;;;;;;;10335826;28;20033;-48
2023/01/07 23:08:22;;;;;;;14.23;10.38;;;;;;;;;;10330762;28;20113;-47
2023/01/07 23:13:23;;;;;;;16.17;10.35;;;;;;;;;;10329212;28;20030;-52
2023/01/07 23:18:23;;;;;;;16.15;10.63;;;;;;;;;;10327590;28;20397;-47
2023/01/07 23:23:24;;;;;;;16.60;11.18;;;;;;;;;;10327338;28;20406;-47
2023/01/07 23:28:24;;;;;;;16.27;10.90;;;;;;;;;;10327912;28;20505;-46
2023/01/07 23:33:25;;;;;;;13.23;9.82;;;;;;;;;;10328267;28;20493;-48
2023/01/07 23:38:26;;;;;;;15.95;11.32;;;;;;;;;;10325419;28;20034;-47
2023/01/07 23:43:26;;;;;;;17.63;10.45;;;;;;;;;;10325898;28;20398;-50
2023/01/07 23:48:32;;;;;;;18.50;10.35;;;;;;;;;;10334636;28;20473;-47
2023/01/07 23:53:33;;;;;;;17.40;10.55;;;;;;;;;;10355346;28;20030;-52
2023/01/07 23:58:34;;;;;;;22.17;10.35;;;;;;;;;;10354811;28;20481;-50
